Главная страница
METAR-TAF:

METAR-TAF

Аэропорты :

Хон, Германия

широта: 54-19N, долгота: 009-32E, высота над уровнем моря: 12 м

Текущие метеонаблюдения

Эта сводка был подготовлена 53 минут назад, в 10:20 UTC
Ветер 15 Узел от западный
Температура 13°C
Влажность 67%
Давление 1015 hPa
Видимость 10 км и более
небольшая облачность на высоте 2200 фута
Рассеянная облачность на высоте 2700 фута

METAR: ETNH 251020Z 28015KT 9999 FEW022 BKN027 13/07 Q1015 BLU

Время: 13:13 (11:13 UTC)

Прогноз

Эта сводка был подготовлена 1 час и 13 минут назад, в 10:00 UTC
Прогноз действительный с 25-го 11 UTC до 25-го 23 UTC
Ветер 10 Узел от западный
Видимость 10 км и более
Рассеянная облачность на высоте 2000 фута
временами
С 25-го 11 UTC до 25-го 20 UTC
Ветер 10 Узел от западный с порывами до 22 Узел
Видимость 10 км и более
Рассеянная облачность на высоте 3000 фута

TAF: ETNH 251000Z 2511/2523 28010KT 9999 NSW BKN020 TEMPO 2511/2520 28010G22KT 9999 NSW BKN030 BY ETGL

Метеонаблюдения и прогнозы для более 4000 аэропортов (сводки METAR и TAF).

Имеющиеся станции представлены на карте желтыми и красными точками.

Чтобы увидеть название станции, наведите на нее мышь.

Затем щелкните, чтобы увидеть метеонаблюдения и метеопрогнозы.

Управление картой: чтобы увеличить масштаб, щелкните зеленые кнопки с черным крестиком; чтобы уменьшить масштаб, щелкните зеленую кнопку с тире; для просмотра соседних карт щелкайте зеленые стрелки.


METAR-TAF: